Time;durP1;ratioP1;P1;durP2;ratioP2;P2;SDS_P1;SDS_P2;PMS_P1;PMS_P2;Temp;Humidity;BMP_temperature;BMP_pressure;BME280_temperature;BME280_humidity;BME280_pressure;Samples;Min_cycle;Max_cycle;Signal;HPM_P1;HPM_P2
2024/03/07 00:01:56;;;;;;;16.80;10.23;;;;;;;;;;5049615;28;20037;-53
2024/03/07 00:04:25;;;;;;;23.85;12.80;;;;;;;;;;5053322;28;20048;-54
2024/03/07 00:06:51;;;;;;;18.92;10.40;;;;;;;;;;5057057;28;20041;-54
2024/03/07 00:09:24;;;;;;;19.42;10.73;;;;;;;;;;5051552;28;20041;-54
2024/03/07 00:11:51;;;;;;;17.13;10.38;;;;;;;;;;5056419;28;20045;-52
2024/03/07 00:14:17;;;;;;;17.05;10.20;;;;;;;;;;5055067;28;20091;-56
2024/03/07 00:16:44;;;;;;;18.65;11.30;;;;;;;;;;5051188;28;20041;-56
2024/03/07 00:19:11;;;;;;;16.95;10.52;;;;;;;;;;5052336;28;20124;-54
2024/03/07 00:21:39;;;;;;;17.67;10.60;;;;;;;;;;5051784;28;20068;-57
2024/03/07 00:24:06;;;;;;;17.48;10.82;;;;;;;;;;5049378;28;20486;-53
2024/03/07 00:26:33;;;;;;;17.48;10.88;;;;;;;;;;5057590;28;20056;-55
2024/03/07 00:29:00;;;;;;;16.77;10.65;;;;;;;;;;5056935;28;20135;-56
2024/03/07 00:31:26;;;;;;;16.02;10.32;;;;;;;;;;5054527;28;20480;-53
2024/03/07 00:33:53;;;;;;;18.70;10.15;;;;;;;;;;5053794;28;20080;-55
2024/03/07 00:36:21;;;;;;;19.10;11.77;;;;;;;;;;5056054;28;20124;-53
2024/03/07 00:38:49;;;;;;;16.30;10.63;;;;;;;;;;5048416;28;20045;-54
2024/03/07 00:41:17;;;;;;;17.33;9.95;;;;;;;;;;5045850;28;20124;-56
2024/03/07 00:43:43;;;;;;;19.15;11.73;;;;;;;;;;5049134;28;20098;-56
2024/03/07 00:46:10;;;;;;;16.63;10.82;;;;;;;;;;5049340;28;20466;-54
2024/03/07 00:48:37;;;;;;;17.73;10.13;;;;;;;;;;5047330;28;20110;-50
2024/03/07 00:51:04;;;;;;;19.55;10.77;;;;;;;;;;5050941;28;20484;-53
2024/03/07 00:53:31;;;;;;;20.02;11.35;;;;;;;;;;5050386;28;20974;-52
2024/03/07 00:55:59;;;;;;;17.95;11.85;;;;;;;;;;5051855;28;20576;-53
2024/03/07 00:58:27;;;;;;;17.55;10.45;;;;;;;;;;5049415;28;20132;-51
2024/03/07 01:00:54;;;;;;;20.52;12.70;;;;;;;;;;5056689;28;20071;-54
2024/03/07 01:03:21;;;;;;;19.27;11.32;;;;;;;;;;5054266;28;20083;-51
2024/03/07 01:05:48;;;;;;;21.67;12.45;;;;;;;;;;5057993;28;20051;-51
2024/03/07 01:08:15;;;;;;;20.88;11.32;;;;;;;;;;5052669;28;20494;-56
2024/03/07 01:10:42;;;;;;;19.45;11.48;;;;;;;;;;5051692;28;20476;-54
2024/03/07 01:13:18;;;;;;;20.63;11.75;;;;;;;;;;5052364;28;20467;-52
2024/03/07 01:15:45;;;;;;;21.02;11.65;;;;;;;;;;5051813;28;20076;-53
2024/03/07 01:18:12;;;;;;;23.30;11.88;;;;;;;;;;5053048;28;20111;-56
2024/03/07 01:20:39;;;;;;;21.67;12.88;;;;;;;;;;5051951;28;20053;-53
2024/03/07 01:23:07;;;;;;;21.73;11.85;;;;;;;;;;5051782;28;20081;-55
2024/03/07 01:25:34;;;;;;;20.50;12.32;;;;;;;;;;5052049;28;20056;-56
2024/03/07 01:28:01;;;;;;;22.10;12.77;;;;;;;;;;5051929;28;20059;-57
2024/03/07 01:30:29;;;;;;;21.63;12.45;;;;;;;;;;5051897;28;20045;-55
2024/03/07 01:32:56;;;;;;;22.08;11.52;;;;;;;;;;5051707;28;20094;-55
2024/03/07 01:35:22;;;;;;;22.90;12.77;;;;;;;;;;5051702;28;20119;-54
2024/03/07 01:37:49;;;;;;;24.35;13.55;;;;;;;;;;5051692;28;20087;-54
2024/03/07 01:40:16;;;;;;;24.08;13.05;;;;;;;;;;5051622;28;20103;-53
2024/03/07 01:42:43;;;;;;;23.00;13.70;;;;;;;;;;5051372;28;20170;-53
2024/03/07 01:45:10;;;;;;;22.52;12.90;;;;;;;;;;5051336;28;20080;-57
2024/03/07 01:47:38;;;;;;;22.95;13.48;;;;;;;;;;5054142;28;20113;-56
2024/03/07 01:50:07;;;;;;;22.00;12.48;;;;;;;;;;5051732;28;20158;-51
2024/03/07 01:52:34;;;;;;;21.13;12.55;;;;;;;;;;5051423;28;20095;-55
2024/03/07 01:55:02;;;;;;;22.35;12.77;;;;;;;;;;5051229;28;20087;-55
2024/03/07 01:57:30;;;;;;;24.02;12.48;;;;;;;;;;5044043;28;20037;-54
2024/03/07 01:59:57;;;;;;;24.42;11.82;;;;;;;;;;5051632;28;20136;-56
2024/03/07 02:02:24;;;;;;;23.77;12.63;;;;;;;;;;5051855;28;20072;-56
2024/03/07 02:04:52;;;;;;;23.00;13.50;;;;;;;;;;5050793;28;20049;-56
2024/03/07 02:07:19;;;;;;;22.52;13.27;;;;;;;;;;5053197;28;20072;-54
2024/03/07 02:09:45;;;;;;;24.67;14.25;;;;;;;;;;5051818;28;20109;-56
2024/03/07 02:12:12;;;;;;;21.85;12.77;;;;;;;;;;5051773;28;20095;-54
2024/03/07 02:14:39;;;;;;;24.40;13.25;;;;;;;;;;5051218;28;20471;-55
2024/03/07 02:17:06;;;;;;;23.23;12.77;;;;;;;;;;5051288;28;20084;-55
2024/03/07 02:19:33;;;;;;;24.38;14.90;;;;;;;;;;5056445;28;20056;-57
2024/03/07 02:22:01;;;;;;;25.58;14.65;;;;;;;;;;5050452;28;20079;-56
2024/03/07 02:24:28;;;;;;;27.02;14.98;;;;;;;;;;5051445;28;20048;-54
2024/03/07 02:26:54;;;;;;;27.45;14.90;;;;;;;;;;5051113;28;20072;-56
2024/03/07 02:29:22;;;;;;;23.88;14.35;;;;;;;;;;5051873;28;20109;-55
2024/03/07 02:31:48;;;;;;;23.98;14.32;;;;;;;;;;5051604;28;20493;-56
2024/03/07 02:34:15;;;;;;;22.65;12.95;;;;;;;;;;5051402;28;20497;-55
2024/03/07 02:36:42;;;;;;;24.48;14.50;;;;;;;;;;5051124;28;20080;-55
2024/03/07 02:39:10;;;;;;;23.00;12.77;;;;;;;;;;5051103;28;20051;-56
2024/03/07 02:41:37;;;;;;;24.00;14.45;;;;;;;;;;5051241;28;20140;-56
2024/03/07 02:44:04;;;;;;;22.90;12.80;;;;;;;;;;5050853;28;20084;-51
2024/03/07 02:46:32;;;;;;;23.20;12.93;;;;;;;;;;5051048;28;20455;-55
2024/03/07 02:48:58;;;;;;;24.00;14.25;;;;;;;;;;5051340;28;20057;-53
2024/03/07 02:51:25;;;;;;;23.85;14.55;;;;;;;;;;5051506;28;20076;-53
2024/03/07 02:53:52;;;;;;;25.40;14.43;;;;;;;;;;5051096;28;20123;-53
2024/03/07 02:56:20;;;;;;;26.40;13.95;;;;;;;;;;5050700;28;20124;-55
2024/03/07 02:58:47;;;;;;;23.95;13.27;;;;;;;;;;5051223;28;20088;-54
2024/03/07 03:01:13;;;;;;;26.08;14.50;;;;;;;;;;5051141;28;20079;-54
2024/03/07 03:03:42;;;;;;;24.63;14.25;;;;;;;;;;5050432;28;20133;-54
2024/03/07 03:06:09;;;;;;;25.55;14.18;;;;;;;;;;5050969;28;20095;-53
2024/03/07 03:08:35;;;;;;;28.33;15.32;;;;;;;;;;5050977;28;20076;-54
2024/03/07 03:11:03;;;;;;;25.27;15.43;;;;;;;;;;5050933;28;20049;-56
2024/03/07 03:13:31;;;;;;;25.83;14.13;;;;;;;;;;5051460;28;20134;-56
2024/03/07 03:15:58;;;;;;;25.73;14.68;;;;;;;;;;5050875;28;20052;-56
2024/03/07 03:18:25;;;;;;;26.55;14.30;;;;;;;;;;5050959;28;20132;-55
2024/03/07 03:20:52;;;;;;;27.55;15.55;;;;;;;;;;5050953;28;20083;-56
2024/03/07 03:23:20;;;;;;;26.23;15.02;;;;;;;;;;5050805;28;20045;-55
2024/03/07 03:25:48;;;;;;;24.48;15.23;;;;;;;;;;5050690;28;20056;-55
2024/03/07 03:28:14;;;;;;;27.73;14.75;;;;;;;;;;5051374;28;20041;-51
2024/03/07 03:30:43;;;;;;;25.08;15.38;;;;;;;;;;5051485;28;20449;-56
2024/03/07 03:33:10;;;;;;;26.50;15.40;;;;;;;;;;5060209;28;20048;-55
2024/03/07 03:35:37;;;;;;;30.27;16.13;;;;;;;;;;5062600;28;20049;-52
2024/03/07 03:38:04;;;;;;;26.10;15.48;;;;;;;;;;5054788;28;20128;-57
2024/03/07 03:40:31;;;;;;;30.02;16.77;;;;;;;;;;5054735;28;20127;-55
2024/03/07 03:42:58;;;;;;;29.95;17.60;;;;;;;;;;5054559;28;20081;-54
2024/03/07 03:45:25;;;;;;;29.38;16.75;;;;;;;;;;5054145;28;20203;-57
2024/03/07 03:47:53;;;;;;;32.70;18.65;;;;;;;;;;5054479;28;20485;-56
2024/03/07 03:50:20;;;;;;;29.20;17.13;;;;;;;;;;5054463;28;20080;-56
2024/03/07 03:52:47;;;;;;;34.28;17.85;;;;;;;;;;5054338;28;20072;-55
2024/03/07 03:55:14;;;;;;;31.50;18.05;;;;;;;;;;5053704;28;20049;-55
2024/03/07 03:57:42;;;;;;;33.28;17.80;;;;;;;;;;5054224;28;20107;-59
2024/03/07 04:00:13;;;;;;;29.35;17.67;;;;;;;;;;5054266;28;20045;-56
2024/03/07 04:02:40;;;;;;;33.47;19.02;;;;;;;;;;5054206;28;20120;-55
2024/03/07 04:05:10;;;;;;;32.03;17.42;;;;;;;;;;5053571;28;20049;-55
2024/03/07 04:07:37;;;;;;;33.97;19.85;;;;;;;;;;5053927;28;20479;-56
2024/03/07 04:10:06;;;;;;;35.70;18.58;;;;;;;;;;5054008;28;20458;-56
2024/03/07 04:12:33;;;;;;;36.17;18.83;;;;;;;;;;5053389;28;20398;-57
2024/03/07 04:15:00;;;;;;;29.42;18.60;;;;;;;;;;5053126;28;20128;-55
2024/03/07 04:17:27;;;;;;;36.00;19.58;;;;;;;;;;5053358;28;20059;-53
2024/03/07 04:19:54;;;;;;;34.05;19.67;;;;;;;;;;5053263;28;20128;-55
2024/03/07 04:22:22;;;;;;;32.83;18.90;;;;;;;;;;5053435;28;20049;-55
2024/03/07 04:24:53;;;;;;;32.85;18.88;;;;;;;;;;5053411;28;20051;-55
2024/03/07 04:27:20;;;;;;;;;;;;;;;;;;5053920;28;20045;-52
2024/03/07 04:29:47;;;;;;;37.53;19.13;;;;;;;;;;5053783;28;20008;-57
2024/03/07 04:32:14;;;;;;;36.97;20.35;;;;;;;;;;5054072;28;20106;-56
2024/03/07 04:34:41;;;;;;;33.28;19.60;;;;;;;;;;5054284;28;20560;-53
2024/03/07 04:37:08;;;;;;;38.58;21.23;;;;;;;;;;5052406;28;20096;-54
2024/03/07 04:39:36;;;;;;;38.33;21.00;;;;;;;;;;5053428;28;20052;-53
2024/03/07 04:42:04;;;;;;;37.38;20.83;;;;;;;;;;5054628;28;20053;-52
2024/03/07 04:44:31;;;;;;;40.70;20.60;;;;;;;;;;5055164;28;20128;-54
2024/03/07 04:46:58;;;;;;;37.47;21.42;;;;;;;;;;5052373;28;20131;-53
2024/03/07 04:49:26;;;;;;;38.00;21.33;;;;;;;;;;5053053;28;20128;-57
2024/03/07 04:51:53;;;;;;;39.45;19.92;;;;;;;;;;5057733;28;20114;-55
2024/03/07 04:54:20;;;;;;;37.85;20.80;;;;;;;;;;5052724;28;20081;-55
2024/03/07 04:56:49;;;;;;;37.00;20.33;;;;;;;;;;5052450;28;20052;-51
2024/03/07 04:59:17;;;;;;;37.35;21.48;;;;;;;;;;5052400;28;20096;-53
2024/03/07 05:01:44;;;;;;;37.42;20.88;;;;;;;;;;5052768;28;20055;-56
2024/03/07 05:04:10;;;;;;;38.20;20.98;;;;;;;;;;5052629;28;20131;-55
2024/03/07 05:06:37;;;;;;;41.10;21.58;;;;;;;;;;5052295;28;20052;-54
2024/03/07 05:09:06;;;;;;;42.25;21.05;;;;;;;;;;5052550;28;20128;-53
2024/03/07 05:11:34;;;;;;;44.83;22.58;;;;;;;;;;5052479;28;20447;-54
2024/03/07 05:14:02;;;;;;;41.88;21.48;;;;;;;;;;5052109;28;20084;-57
2024/03/07 05:16:29;;;;;;;40.58;21.55;;;;;;;;;;5052010;28;20077;-53
2024/03/07 05:18:59;;;;;;;44.45;23.98;;;;;;;;;;5052531;28;20045;-56
2024/03/07 05:21:37;;;;;;;41.03;22.05;;;;;;;;;;5052524;28;20118;-52
2024/03/07 05:24:05;;;;;;;40.42;20.73;;;;;;;;;;5051992;28;20045;-54
2024/03/07 05:26:33;;;;;;;42.88;22.98;;;;;;;;;;5051660;28;20131;-52
2024/03/07 05:29:04;;;;;;;39.65;21.77;;;;;;;;;;5052026;28;20045;-53
2024/03/07 05:31:33;;;;;;;42.25;22.67;;;;;;;;;;5051671;28;20041;-52
2024/03/07 05:34:03;;;;;;;42.22;22.02;;;;;;;;;;5051914;28;20461;-51
2024/03/07 05:36:30;;;;;;;41.88;21.85;;;;;;;;;;5051793;28;20114;-53
2024/03/07 05:38:57;;;;;;;43.45;22.77;;;;;;;;;;5051884;28;20045;-53
2024/03/07 05:41:24;;;;;;;41.15;21.58;;;;;;;;;;5051229;28;20151;-54
2024/03/07 05:43:51;;;;;;;41.35;21.92;;;;;;;;;;5051904;28;20127;-52
2024/03/07 05:46:20;;;;;;;44.50;23.00;;;;;;;;;;5051608;28;20090;-56
2024/03/07 05:48:52;;;;;;;40.78;23.20;;;;;;;;;;5051461;28;20130;-52
2024/03/07 05:51:18;;;;;;;39.58;21.50;;;;;;;;;;5051610;28;20120;-54
2024/03/07 05:53:45;;;;;;;44.22;22.70;;;;;;;;;;5051538;28;20132;-52
2024/03/07 05:56:12;;;;;;;41.47;22.58;;;;;;;;;;5051280;28;20044;-53
2024/03/07 05:58:39;;;;;;;42.08;22.23;;;;;;;;;;5051624;28;20045;-52
2024/03/07 06:01:08;;;;;;;45.70;23.48;;;;;;;;;;5053954;28;20497;-52
2024/03/07 06:03:36;;;;;;;45.28;23.20;;;;;;;;;;5048396;28;20049;-51
2024/03/07 06:06:04;;;;;;;42.15;21.92;;;;;;;;;;5051582;28;20099;-51
2024/03/07 06:08:31;;;;;;;40.67;22.60;;;;;;;;;;5054968;28;20055;-53
2024/03/07 06:10:59;;;;;;;39.30;21.60;;;;;;;;;;5056022;28;20140;-56
2024/03/07 06:13:26;;;;;;;42.13;22.13;;;;;;;;;;5054677;28;20365;-55
2024/03/07 06:15:52;;;;;;;41.83;22.02;;;;;;;;;;5051319;28;20531;-55
2024/03/07 06:18:19;;;;;;;44.15;24.13;;;;;;;;;;5051463;28;20080;-53
2024/03/07 06:20:48;;;;;;;44.90;23.60;;;;;;;;;;5051258;28;20088;-55
2024/03/07 06:23:16;;;;;;;44.30;21.52;;;;;;;;;;5051268;28;20045;-53
2024/03/07 06:25:50;;;;;;;41.67;22.00;;;;;;;;;;5050871;28;20124;-53
2024/03/07 06:28:17;;;;;;;42.83;23.23;;;;;;;;;;5051282;28;20128;-55
2024/03/07 06:30:46;;;;;;;40.08;21.70;;;;;;;;;;5050962;28;20048;-54
2024/03/07 06:33:13;;;;;;;44.72;23.15;;;;;;;;;;5051061;28;20041;-53
2024/03/07 06:35:41;;;;;;;44.20;22.33;;;;;;;;;;5050964;28;20520;-53
2024/03/07 06:38:10;;;;;;;41.10;22.05;;;;;;;;;;5051426;28;20045;-56
2024/03/07 06:40:37;;;;;;;39.25;22.20;;;;;;;;;;5051157;28;20128;-53
2024/03/07 06:43:06;;;;;;;46.63;22.27;;;;;;;;;;5050928;28;20211;-56
2024/03/07 06:45:33;;;;;;;39.53;21.85;;;;;;;;;;5050796;28;20041;-52
2024/03/07 06:48:00;;;;;;;42.53;22.40;;;;;;;;;;5050926;28;20053;-54
2024/03/07 06:50:28;;;;;;;39.13;21.15;;;;;;;;;;5050477;28;20124;-53
2024/03/07 06:52:55;;;;;;;42.22;22.80;;;;;;;;;;5042838;28;20075;-54
2024/03/07 06:55:24;;;;;;;40.38;22.45;;;;;;;;;;5049939;28;20127;-52
2024/03/07 06:57:50;;;;;;;40.72;23.05;;;;;;;;;;5050986;28;20053;-54
2024/03/07 07:00:19;;;;;;;45.92;23.75;;;;;;;;;;5051002;28;20131;-51
2024/03/07 07:02:46;;;;;;;44.80;23.45;;;;;;;;;;5051086;28;20049;-50
2024/03/07 07:05:15;;;;;;;38.10;21.95;;;;;;;;;;5050702;28;20132;-54
2024/03/07 07:07:42;;;;;;;46.03;22.35;;;;;;;;;;5052669;28;20135;-52
2024/03/07 07:10:15;;;;;;;45.03;24.25;;;;;;;;;;5054815;28;20501;-51
2024/03/07 07:12:44;;;;;;;40.92;22.48;;;;;;;;;;5054694;28;20053;-53
2024/03/07 07:15:12;;;;;;;40.97;22.55;;;;;;;;;;5054519;28;20065;-52
2024/03/07 07:17:39;;;;;;;38.95;21.90;;;;;;;;;;5056287;28;20079;-51
2024/03/07 07:20:10;;;;;;;42.35;22.02;;;;;;;;;;5056144;28;20092;-51
2024/03/07 07:22:37;;;;;;;45.05;22.88;;;;;;;;;;5048414;28;20049;-50
2024/03/07 07:25:04;;;;;;;45.55;24.27;;;;;;;;;;5054410;28;20548;-52
2024/03/07 07:27:31;;;;;;;41.88;22.45;;;;;;;;;;5059893;28;20045;-52
2024/03/07 07:29:59;;;;;;;42.88;22.33;;;;;;;;;;5052841;28;20523;-55
2024/03/07 07:32:27;;;;;;;41.33;22.25;;;;;;;;;;5058241;28;20448;-54
2024/03/07 07:34:54;;;;;;;42.47;22.60;;;;;;;;;;5058952;28;20049;-54
2024/03/07 07:37:21;;;;;;;42.88;23.02;;;;;;;;;;5058693;28;20127;-51
2024/03/07 07:39:47;;;;;;;43.20;23.35;;;;;;;;;;5056852;28;20090;-55
2024/03/07 07:42:14;;;;;;;45.88;23.58;;;;;;;;;;5056312;28;20067;-54
2024/03/07 07:44:41;;;;;;;45.90;23.90;;;;;;;;;;5056899;28;20112;-52
2024/03/07 07:47:10;;;;;;;45.03;24.40;;;;;;;;;;5053017;28;20069;-53
2024/03/07 07:49:38;;;;;;;43.20;23.85;;;;;;;;;;5051788;28;20041;-52
2024/03/07 07:52:05;;;;;;;41.88;22.52;;;;;;;;;;5054403;28;20041;-54
2024/03/07 07:54:32;;;;;;;44.05;22.73;;;;;;;;;;5058246;28;20091;-52
2024/03/07 07:56:58;;;;;;;36.45;19.45;;;;;;;;;;5056060;28;20065;-52
2024/03/07 07:59:25;;;;;;;42.63;21.80;;;;;;;;;;5060708;28;20133;-53
2024/03/07 08:01:55;;;;;;;47.33;23.33;;;;;;;;;;5053889;28;20068;-52
2024/03/07 08:04:23;;;;;;;44.45;21.98;;;;;;;;;;5055688;28;20045;-50
2024/03/07 08:06:51;;;;;;;40.38;20.80;;;;;;;;;;5056534;28;20048;-52
2024/03/07 08:09:18;;;;;;;41.78;22.55;;;;;;;;;;5053320;28;20052;-55
2024/03/07 08:11:45;;;;;;;43.35;22.00;;;;;;;;;;5052023;28;20036;-56
2024/03/07 08:14:12;;;;;;;43.35;21.42;;;;;;;;;;5056591;28;20144;-56
2024/03/07 08:16:39;;;;;;;41.97;22.60;;;;;;;;;;5054330;28;20488;-55
2024/03/07 08:19:06;;;;;;;39.88;21.70;;;;;;;;;;5053611;28;20508;-55
2024/03/07 08:21:34;;;;;;;39.92;21.40;;;;;;;;;;5046831;28;20405;-50
2024/03/07 08:24:03;;;;;;;41.85;22.98;;;;;;;;;;5057003;28;20068;-57
2024/03/07 08:26:30;;;;;;;43.17;22.83;;;;;;;;;;5048099;28;20048;-56
2024/03/07 08:28:57;;;;;;;46.80;24.48;;;;;;;;;;5057059;28;20045;-56
2024/03/07 08:31:23;;;;;;;45.60;24.40;;;;;;;;;;5049250;28;20076;-54
2024/03/07 08:33:50;;;;;;;41.85;22.45;;;;;;;;;;5051562;28;20083;-56
2024/03/07 08:36:17;;;;;;;43.00;22.50;;;;;;;;;;5051765;28;20084;-51
2024/03/07 08:38:46;;;;;;;39.80;21.63;;;;;;;;;;5055790;28;20072;-54
2024/03/07 08:41:13;;;;;;;42.30;21.92;;;;;;;;;;5056619;28;20534;-55
2024/03/07 08:43:39;;;;;;;42.35;22.60;;;;;;;;;;5051202;28;20077;-56
2024/03/07 08:46:06;;;;;;;42.22;23.85;;;;;;;;;;5050638;28;20081;-56
2024/03/07 08:48:33;;;;;;;43.20;22.27;;;;;;;;;;5051342;28;20753;-51
2024/03/07 08:50:59;;;;;;;38.58;21.40;;;;;;;;;;5051204;28;20044;-54
2024/03/07 08:53:25;;;;;;;39.83;22.95;;;;;;;;;;5052103;28;20076;-53
2024/03/07 08:55:53;;;;;;;40.42;22.25;;;;;;;;;;5055933;28;20075;-57
2024/03/07 08:58:20;;;;;;;39.28;21.52;;;;;;;;;;5055328;28;20127;-52
2024/03/07 09:00:48;;;;;;;40.83;21.50;;;;;;;;;;5051807;28;20479;-55
2024/03/07 09:03:15;;;;;;;42.75;22.83;;;;;;;;;;5055595;28;20540;-55
2024/03/07 09:05:41;;;;;;;36.55;20.05;;;;;;;;;;5052732;28;20397;-51
2024/03/07 09:08:08;;;;;;;36.60;20.15;;;;;;;;;;5050624;28;20044;-54
2024/03/07 09:10:35;;;;;;;38.30;21.15;;;;;;;;;;5050364;28;20080;-52
2024/03/07 09:13:03;;;;;;;40.70;20.40;;;;;;;;;;5050224;28;20409;-52
2024/03/07 09:15:30;;;;;;;37.80;20.63;;;;;;;;;;5052405;28;20145;-56
2024/03/07 09:17:57;;;;;;;38.35;21.05;;;;;;;;;;5053906;28;20068;-56
2024/03/07 09:20:25;;;;;;;36.78;20.40;;;;;;;;;;5049561;28;20044;-52
2024/03/07 09:22:54;;;;;;;38.30;21.45;;;;;;;;;;5050563;28;20480;-55
2024/03/07 09:25:20;;;;;;;35.60;20.63;;;;;;;;;;5050033;28;20736;-54
2024/03/07 09:27:48;;;;;;;38.67;20.35;;;;;;;;;;5050248;28;20144;-53
2024/03/07 09:30:19;;;;;;;38.03;20.38;;;;;;;;;;5050329;28;20127;-56
2024/03/07 09:32:46;;;;;;;34.53;18.83;;;;;;;;;;5050843;28;20592;-54
2024/03/07 09:35:13;;;;;;;34.75;18.63;;;;;;;;;;5050410;28;20160;-57
2024/03/07 09:37:41;;;;;;;35.38;19.95;;;;;;;;;;5050453;28;20096;-53
2024/03/07 09:40:10;;;;;;;35.42;20.33;;;;;;;;;;5051963;28;20054;-56
2024/03/07 09:42:42;;;;;;;35.10;20.13;;;;;;;;;;5057068;28;20062;-55
2024/03/07 09:45:11;;;;;;;39.70;19.13;;;;;;;;;;5060739;28;20127;-56
2024/03/07 09:47:40;;;;;;;32.83;19.00;;;;;;;;;;5055837;28;20064;-52
2024/03/07 09:50:08;;;;;;;38.72;20.25;;;;;;;;;;5052728;28;20131;-54
2024/03/07 09:52:36;;;;;;;41.60;20.70;;;;;;;;;;5054090;28;20319;-54
2024/03/07 09:55:02;;;;;;;32.88;18.55;;;;;;;;;;5054172;28;20049;-53
2024/03/07 09:57:32;;;;;;;34.50;19.98;;;;;;;;;;5051392;28;20060;-54
2024/03/07 10:00:02;;;;;;;33.78;20.30;;;;;;;;;;5050295;28;20410;-53
2024/03/07 10:02:30;;;;;;;34.58;19.55;;;;;;;;;;5053250;28;20206;-53
2024/03/07 10:04:59;;;;;;;37.05;20.20;;;;;;;;;;5059180;28;20049;-54
2024/03/07 10:07:26;;;;;;;36.67;18.90;;;;;;;;;;5050792;28;20131;-56
2024/03/07 10:09:56;;;;;;;36.67;20.35;;;;;;;;;;5050697;28;20060;-55
2024/03/07 10:12:23;;;;;;;36.67;20.33;;;;;;;;;;5050393;28;20106;-62
2024/03/07 10:14:51;;;;;;;38.15;20.45;;;;;;;;;;5059258;28;20102;-56
2024/03/07 10:17:18;;;;;;;32.88;19.45;;;;;;;;;;5054949;28;20571;-56
2024/03/07 10:19:47;;;;;;;32.20;18.50;;;;;;;;;;5053857;28;20496;-58
2024/03/07 10:22:17;;;;;;;35.75;19.88;;;;;;;;;;5054427;28;20137;-54
2024/03/07 10:24:50;;;;;;;37.97;20.55;;;;;;;;;;5057376;28;20051;-52
2024/03/07 10:27:20;;;;;;;31.77;17.38;;;;;;;;;;5051911;28;20048;-61
2024/03/07 10:29:49;;;;;;;31.65;18.65;;;;;;;;;;5052206;28;20073;-56
2024/03/07 10:32:20;;;;;;;31.38;17.13;;;;;;;;;;5050369;28;20084;-52
2024/03/07 10:34:48;;;;;;;34.85;18.38;;;;;;;;;;5051632;28;20058;-54
2024/03/07 10:37:17;;;;;;;34.30;19.30;;;;;;;;;;5056529;28;20393;-55
2024/03/07 10:39:45;;;;;;;34.67;19.33;;;;;;;;;;5056847;28;20547;-53
2024/03/07 10:42:15;;;;;;;33.33;18.20;;;;;;;;;;5053639;28;20133;-50
2024/03/07 10:44:45;;;;;;;34.28;18.95;;;;;;;;;;5055400;28;20138;-54
2024/03/07 10:47:17;;;;;;;35.53;19.75;;;;;;;;;;5058978;28;20582;-52
2024/03/07 10:49:58;;;;;;;33.08;20.27;;;;;;;;;;5053793;28;20486;-54
2024/03/07 10:52:34;;;;;;;31.52;18.20;;;;;;;;;;5055178;28;20048;-52
2024/03/07 10:55:10;;;;;;;32.80;18.88;;;;;;;;;;5045503;28;20052;-54
2024/03/07 10:57:49;;;;;;;33.47;19.02;;;;;;;;;;5051107;28;20229;-52
2024/03/07 11:00:29;;;;;;;37.30;20.08;;;;;;;;;;5052993;28;20057;-53
2024/03/07 11:02:57;;;;;;;32.30;18.50;;;;;;;;;;5054573;28;20059;-53
2024/03/07 11:05:29;;;;;;;33.40;17.77;;;;;;;;;;5053056;28;20044;-55
2024/03/07 11:08:02;;;;;;;33.45;17.88;;;;;;;;;;5045477;28;20506;-55
2024/03/07 11:10:30;;;;;;;34.83;18.88;;;;;;;;;;5051284;28;20053;-53
2024/03/07 11:12:58;;;;;;;32.10;18.65;;;;;;;;;;5049724;28;20071;-55
2024/03/07 11:15:27;;;;;;;32.15;17.70;;;;;;;;;;5049086;28;20432;-54
2024/03/07 11:17:55;;;;;;;30.20;17.35;;;;;;;;;;5049042;28;20051;-53
2024/03/07 11:20:23;;;;;;;30.73;17.38;;;;;;;;;;5048555;28;20476;-53
2024/03/07 11:22:50;;;;;;;29.33;16.73;;;;;;;;;;5053108;28;20412;-51
2024/03/07 11:25:21;;;;;;;30.55;17.63;;;;;;;;;;5049172;28;20041;-53
2024/03/07 11:27:56;;;;;;;31.65;16.98;;;;;;;;;;5047935;28;20049;-51
2024/03/07 11:30:24;;;;;;;30.60;19.02;;;;;;;;;;5045683;28;20563;-54
2024/03/07 11:32:53;;;;;;;30.42;17.63;;;;;;;;;;5048223;28;20061;-51
2024/03/07 11:35:25;;;;;;;30.60;16.13;;;;;;;;;;5048400;28;20136;-55
2024/03/07 11:37:58;;;;;;;35.83;16.95;;;;;;;;;;5048836;28;20053;-51
2024/03/07 11:40:48;;;;;;;29.10;16.13;;;;;;;;;;5048641;28;20079;-54
2024/03/07 11:43:15;;;;;;;30.63;16.35;;;;;;;;;;5050848;28;20080;-54
2024/03/07 11:45:46;;;;;;;29.00;15.18;;;;;;;;;;5047174;28;20048;-56
2024/03/07 11:48:14;;;;;;;33.75;18.30;;;;;;;;;;5052196;28;20075;-53
2024/03/07 11:50:42;;;;;;;32.25;17.33;;;;;;;;;;5052069;28;20197;-55
2024/03/07 11:53:10;;;;;;;32.22;17.75;;;;;;;;;;5053597;28;20048;-55
2024/03/07 11:55:45;;;;;;;32.00;18.13;;;;;;;;;;5055205;28;20057;-55
2024/03/07 11:58:14;;;;;;;31.75;16.80;;;;;;;;;;5049078;28;20051;-52
2024/03/07 12:00:44;;;;;;;;;;;;;;;;;;5053882;28;20225;-55
2024/03/07 12:03:13;;;;;;;30.17;14.90;;;;;;;;;;5051492;28;19959;-55
2024/03/07 12:05:41;;;;;;;30.77;15.52;;;;;;;;;;5051513;28;20049;-55
2024/03/07 12:08:10;;;;;;;29.77;15.57;;;;;;;;;;5051655;28;20048;-56
2024/03/07 12:10:38;;;;;;;31.45;17.30;;;;;;;;;;5051460;28;20171;-54
2024/03/07 12:13:06;;;;;;;31.10;15.95;;;;;;;;;;5052033;28;20081;-54
2024/03/07 12:15:37;;;;;;;32.28;16.52;;;;;;;;;;5053360;28;20147;-56
2024/03/07 12:18:08;;;;;;;30.90;15.95;;;;;;;;;;5052067;28;20049;-54
2024/03/07 12:20:36;;;;;;;;;;;;;;;;;;5049196;28;20063;-56
2024/03/07 12:23:03;;;;;;;32.85;17.58;;;;;;;;;;5051911;28;19920;-53
2024/03/07 12:25:30;;;;;;;32.58;17.08;;;;;;;;;;5051465;28;20057;-54
2024/03/07 12:28:05;;;;;;;30.90;16.90;;;;;;;;;;5043888;28;20060;-57
2024/03/07 12:30:35;;;;;;;31.23;16.40;;;;;;;;;;5052067;28;20072;-54
2024/03/07 12:33:04;;;;;;;28.52;15.43;;;;;;;;;;5051839;28;20056;-55
2024/03/07 12:35:32;;;;;;;28.80;15.10;;;;;;;;;;5052356;28;20068;-54
2024/03/07 12:37:59;;;;;;;29.52;15.95;;;;;;;;;;5056669;28;20076;-53
2024/03/07 12:40:29;;;;;;;30.02;15.48;;;;;;;;;;5055020;28;20056;-52
2024/03/07 12:42:56;;;;;;;27.08;14.50;;;;;;;;;;5057264;28;20045;-54
2024/03/07 12:45:23;;;;;;;29.63;16.02;;;;;;;;;;5053974;28;20052;-56
2024/03/07 12:47:54;;;;;;;30.38;16.73;;;;;;;;;;5052017;28;20045;-60
2024/03/07 12:50:22;;;;;;;26.98;16.20;;;;;;;;;;5055551;28;20045;-53
2024/03/07 12:52:50;;;;;;;30.70;17.00;;;;;;;;;;5060178;28;20053;-55
2024/03/07 12:55:21;;;;;;;28.08;15.52;;;;;;;;;;5051419;28;20064;-55
2024/03/07 12:57:49;;;;;;;27.42;16.05;;;;;;;;;;5051616;28;20506;-56
2024/03/07 13:00:20;;;;;;;31.42;17.20;;;;;;;;;;5051457;28;20561;-52
2024/03/07 13:02:47;;;;;;;33.63;18.05;;;;;;;;;;5050926;28;20103;-54
2024/03/07 13:05:21;;;;;;;27.52;15.35;;;;;;;;;;5055490;28;20072;-54
2024/03/07 13:07:49;;;;;;;32.92;17.10;;;;;;;;;;5058253;28;20045;-52
2024/03/07 13:10:16;;;;;;;27.85;15.75;;;;;;;;;;5049833;28;20665;-56
2024/03/07 13:12:45;;;;;;;28.73;16.23;;;;;;;;;;5056831;28;20444;-51
2024/03/07 13:15:12;;;;;;;29.15;16.38;;;;;;;;;;5051393;28;20068;-55
2024/03/07 13:17:39;;;;;;;26.73;15.15;;;;;;;;;;5051181;28;20455;-53
2024/03/07 13:20:11;;;;;;;27.63;14.63;;;;;;;;;;5052572;28;20158;-56
2024/03/07 13:22:42;;;;;;;27.65;16.40;;;;;;;;;;5048609;28;20049;-55
2024/03/07 13:25:13;;;;;;;25.60;14.88;;;;;;;;;;5049855;28;20052;-55
2024/03/07 13:27:42;;;;;;;;;;;;;;;;;;5048824;28;20041;-52
2024/03/07 13:30:23;;;;;;;29.20;16.00;;;;;;;;;;5051391;28;20487;-52
2024/03/07 13:32:53;;;;;;;27.23;15.45;;;;;;;;;;5057626;28;20048;-55
2024/03/07 13:35:21;;;;;;;29.25;16.30;;;;;;;;;;5055662;28;20073;-53
2024/03/07 13:37:50;;;;;;;25.83;14.10;;;;;;;;;;5050157;28;20057;-56
2024/03/07 13:40:24;;;;;;;28.50;15.82;;;;;;;;;;5050492;28;20666;-54
2024/03/07 13:42:53;;;;;;;27.92;16.05;;;;;;;;;;5054145;28;20452;-54
2024/03/07 13:45:22;;;;;;;26.48;15.90;;;;;;;;;;5049676;28;20060;-54
2024/03/07 13:47:49;;;;;;;28.77;15.98;;;;;;;;;;5052063;28;20069;-54
2024/03/07 13:50:19;;;;;;;27.95;15.75;;;;;;;;;;5056888;28;20044;-52
2024/03/07 13:53:04;;;;;;;28.73;15.60;;;;;;;;;;5055191;28;20164;-53
2024/03/07 13:55:39;;;;;;;26.42;14.20;;;;;;;;;;5049762;28;20076;-53
2024/03/07 13:58:14;;;;;;;25.45;14.68;;;;;;;;;;5054184;28;20045;-51
2024/03/07 14:00:48;;;;;;;28.92;15.95;;;;;;;;;;5053810;28;20049;-53
2024/03/07 14:03:32;;;;;;;28.77;16.05;;;;;;;;;;5049903;28;20060;-54
2024/03/07 14:06:06;;;;;;;30.88;16.63;;;;;;;;;;5046857;28;20419;-54
2024/03/07 14:08:54;;;;;;;30.52;17.17;;;;;;;;;;5056093;28;20063;-55
2024/03/07 14:11:45;;;;;;;27.98;15.55;;;;;;;;;;5051007;28;20052;-54
2024/03/07 14:14:41;;;;;;;31.17;16.67;;;;;;;;;;5050606;28;20080;-56
2024/03/07 14:17:41;;;;;;;26.48;15.23;;;;;;;;;;5047116;28;20048;-52
2024/03/07 14:20:56;;;;;;;33.28;17.27;;;;;;;;;;5052353;28;20048;-53
2024/03/07 14:23:39;;;;;;;30.30;17.55;;;;;;;;;;5047013;28;20083;-54
2024/03/07 14:26:55;;;;;;;32.33;17.67;;;;;;;;;;5053634;28;20068;-54
2024/03/07 14:29:31;;;;;;;31.95;17.10;;;;;;;;;;5056345;28;20060;-52